sensor_id;sensor_type;location;lat;lon;timestamp;pressure;altitude;pressure_sealevel;temperature;humidity
14612;BME280;7392;52.078;11.650;2022-08-24T00:00:18;101235.88;;;17.54;77.38
14612;BME280;7392;52.078;11.650;2022-08-24T00:02:46;101231.47;;;17.52;77.57
14612;BME280;7392;52.078;11.650;2022-08-24T00:05:15;101232.47;;;17.48;77.67
14612;BME280;7392;52.078;11.650;2022-08-24T00:07:43;101234.31;;;17.46;77.53
14612;BME280;7392;52.078;11.650;2022-08-24T00:10:11;101232.59;;;17.42;77.58
14612;BME280;7392;52.078;11.650;2022-08-24T00:12:39;101233.59;;;17.37;77.57
14612;BME280;7392;52.078;11.650;2022-08-24T00:15:10;101231.88;;;17.33;77.88
14612;BME280;7392;52.078;11.650;2022-08-24T00:17:38;101223.91;;;17.30;78.12
14612;BME280;7392;52.078;11.650;2022-08-24T00:20:09;101221.31;;;17.26;78.25
14612;BME280;7392;52.078;11.650;2022-08-24T00:22:37;101223.16;;;17.24;78.57
14612;BME280;7392;52.078;11.650;2022-08-24T00:25:08;101223.25;;;17.19;78.33
14612;BME280;7392;52.078;11.650;2022-08-24T00:27:37;101219.78;;;17.14;78.52
14612;BME280;7392;52.078;11.650;2022-08-24T00:30:10;101223.41;;;17.11;79.23
14612;BME280;7392;52.078;11.650;2022-08-24T00:32:39;101222.56;;;17.09;79.62
14612;BME280;7392;52.078;11.650;2022-08-24T00:35:07;101224.44;;;17.06;79.71
14612;BME280;7392;52.078;11.650;2022-08-24T00:37:36;101212.88;;;17.04;79.78
14612;BME280;7392;52.078;11.650;2022-08-24T00:40:07;101224.56;;;16.99;80.19
14612;BME280;7392;52.078;11.650;2022-08-24T00:42:39;101222.88;;;16.95;80.68
14612;BME280;7392;52.078;11.650;2022-08-24T00:45:11;101231.78;;;16.96;80.85
14612;BME280;7392;52.078;11.650;2022-08-24T00:47:42;101227.41;;;16.92;80.89
14612;BME280;7392;52.078;11.650;2022-08-24T00:50:18;101229.25;;;16.90;81.55
14612;BME280;7392;52.078;11.650;2022-08-24T00:52:49;101226.63;;;16.87;81.79
14612;BME280;7392;52.078;11.650;2022-08-24T00:55:21;101228.47;;;16.83;81.85
14612;BME280;7392;52.078;11.650;2022-08-24T00:57:51;101224.03;;;16.80;82.08
14612;BME280;7392;52.078;11.650;2022-08-24T01:00:26;101218.75;;;16.77;82.20
14612;BME280;7392;52.078;11.650;2022-08-24T01:02:57;101225.06;;;16.73;82.27
14612;BME280;7392;52.078;11.650;2022-08-24T01:05:29;101221.56;;;16.70;82.28
14612;BME280;7392;52.078;11.650;2022-08-24T01:07:57;101218.94;;;16.67;82.52
14612;BME280;7392;52.078;11.650;2022-08-24T01:10:28;101224.38;;;16.63;82.59
14612;BME280;7392;52.078;11.650;2022-08-24T01:12:59;101225.34;;;16.61;83.02
14612;BME280;7392;52.078;11.650;2022-08-24T01:15:32;101221.81;;;16.59;83.16
14612;BME280;7392;52.078;11.650;2022-08-24T01:18:00;101225.44;;;16.55;83.28
14612;BME280;7392;52.078;11.650;2022-08-24T01:20:50;101230.81;;;16.53;83.61
14612;BME280;7392;52.078;11.650;2022-08-24T01:23:32;101232.66;;;16.51;83.54
14612;BME280;7392;52.078;11.650;2022-08-24T01:26:02;101227.41;;;16.47;83.52
14612;BME280;7392;52.078;11.650;2022-08-24T01:28:32;101234.56;;;16.44;83.99
14612;BME280;7392;52.078;11.650;2022-08-24T01:31:02;101238.22;;;16.42;83.89
14612;BME280;7392;52.078;11.650;2022-08-24T01:33:31;101236.44;;;16.41;83.83
14612;BME280;7392;52.078;11.650;2022-08-24T01:36:02;101225.75;;;16.38;84.17
14612;BME280;7392;52.078;11.650;2022-08-24T01:38:33;101233.88;;;16.35;84.66
14612;BME280;7392;52.078;11.650;2022-08-24T01:41:03;101235.69;;;16.33;84.93
14612;BME280;7392;52.078;11.650;2022-08-24T01:43:31;101230.34;;;16.31;85.40
14612;BME280;7392;52.078;11.650;2022-08-24T01:46:05;101233.97;;;16.29;85.38
14612;BME280;7392;52.078;11.650;2022-08-24T01:48:33;101239.38;;;16.27;85.16
14612;BME280;7392;52.078;11.650;2022-08-24T01:51:01;101235.84;;;16.23;85.12
14612;BME280;7392;52.078;11.650;2022-08-24T01:53:29;101242.13;;;16.21;84.95
14612;BME280;7392;52.078;11.650;2022-08-24T01:55:59;101237.75;;;16.17;84.77
14612;BME280;7392;52.078;11.650;2022-08-24T01:58:27;101244.06;;;16.14;84.75
14612;BME280;7392;52.078;11.650;2022-08-24T02:00:57;101241.47;;;16.10;84.64
14612;BME280;7392;52.078;11.650;2022-08-24T02:03:25;101242.38;;;16.07;84.96
14612;BME280;7392;52.078;11.650;2022-08-24T02:05:56;101242.47;;;16.02;84.55
14612;BME280;7392;52.078;11.650;2022-08-24T02:08:26;101239.84;;;15.99;84.78
14612;BME280;7392;52.078;11.650;2022-08-24T02:10:54;101242.56;;;15.96;84.76
14612;BME280;7392;52.078;11.650;2022-08-24T02:13:24;101252.44;;;15.94;84.86
14612;BME280;7392;52.078;11.650;2022-08-24T02:15:52;101246.25;;;15.91;85.04
14612;BME280;7392;52.078;11.650;2022-08-24T02:18:20;101245.41;;;15.87;84.72
14612;BME280;7392;52.078;11.650;2022-08-24T02:20:48;101247.25;;;15.83;84.75
14612;BME280;7392;52.078;11.650;2022-08-24T02:23:16;101246.38;;;15.81;84.87
14612;BME280;7392;52.078;11.650;2022-08-24T02:25:45;101252.72;;;15.77;84.82
14612;BME280;7392;52.078;11.650;2022-08-24T02:28:13;101250.03;;;15.74;85.24
14612;BME280;7392;52.078;11.650;2022-08-24T02:30:43;101250.06;;;15.73;85.53
14612;BME280;7392;52.078;11.650;2022-08-24T02:33:11;101256.34;;;15.70;85.59
14612;BME280;7392;52.078;11.650;2022-08-24T02:35:40;101248.38;;;15.67;85.86
14612;BME280;7392;52.078;11.650;2022-08-24T02:38:08;101247.50;;;15.65;86.26
14612;BME280;7392;52.078;11.650;2022-08-24T02:40:37;101250.19;;;15.65;86.79
14612;BME280;7392;52.078;11.650;2022-08-24T02:43:05;101256.47;;;15.62;87.00
14612;BME280;7392;52.078;11.650;2022-08-24T02:45:37;101250.28;;;15.59;86.94
14612;BME280;7392;52.078;11.650;2022-08-24T02:48:07;101247.63;;;15.57;87.26
14612;BME280;7392;52.078;11.650;2022-08-24T02:50:38;101262.81;;;15.57;87.35
14612;BME280;7392;52.078;11.650;2022-08-24T02:53:06;101261.03;;;15.54;87.88
14612;BME280;7392;52.078;11.650;2022-08-24T02:55:35;101264.66;;;15.51;87.86
14612;BME280;7392;52.078;11.650;2022-08-24T02:58:04;101259.31;;;15.51;88.36
14612;BME280;7392;52.078;11.650;2022-08-24T03:00:33;101266.47;;;15.49;88.73
14612;BME280;7392;52.078;11.650;2022-08-24T03:03:02;101262.91;;;15.49;88.86
14612;BME280;7392;52.078;11.650;2022-08-24T03:05:31;101262.91;;;15.47;88.96
14612;BME280;7392;52.078;11.650;2022-08-24T03:08:00;101258.50;;;15.45;89.43
14612;BME280;7392;52.078;11.650;2022-08-24T03:10:30;101263.88;;;15.43;89.46
14612;BME280;7392;52.078;11.650;2022-08-24T03:12:58;101264.81;;;15.41;89.34
14612;BME280;7392;52.078;11.650;2022-08-24T03:15:29;101258.59;;;15.39;89.58
14612;BME280;7392;52.078;11.650;2022-08-24T03:17:57;101263.06;;;15.37;89.89
14612;BME280;7392;52.078;11.650;2022-08-24T03:20:26;101256.88;;;15.33;89.93
14612;BME280;7392;52.078;11.650;2022-08-24T03:22:59;101256.03;;;15.31;89.83
14612;BME280;7392;52.078;11.650;2022-08-24T03:25:31;101261.41;;;15.29;89.79
14612;BME280;7392;52.078;11.650;2022-08-24T03:28:04;101260.56;;;15.26;89.56
14612;BME280;7392;52.078;11.650;2022-08-24T03:30:37;101262.41;;;15.22;89.22
14612;BME280;7392;52.078;11.650;2022-08-24T03:33:07;101257.94;;;15.20;89.36
14612;BME280;7392;52.078;11.650;2022-08-24T03:35:38;101259.78;;;15.16;89.86
14612;BME280;7392;52.078;11.650;2022-08-24T03:38:10;101261.59;;;15.15;90.13
14612;BME280;7392;52.078;11.650;2022-08-24T03:40:40;101258.03;;;15.15;90.21
14612;BME280;7392;52.078;11.650;2022-08-24T03:43:08;101260.75;;;15.12;90.35
14612;BME280;7392;52.078;11.650;2022-08-24T03:45:58;101258.09;;;15.10;90.43
14612;BME280;7392;52.078;11.650;2022-08-24T03:48:28;101261.63;;;15.11;90.65
14612;BME280;7392;52.078;11.650;2022-08-24T03:50:56;101267.00;;;15.09;90.98
14612;BME280;7392;52.078;11.650;2022-08-24T03:53:25;101275.03;;;15.08;90.90
14612;BME280;7392;52.078;11.650;2022-08-24T03:55:53;101268.84;;;15.06;90.99
14612;BME280;7392;52.078;11.650;2022-08-24T03:58:22;101276.00;;;15.02;91.10
14612;BME280;7392;52.078;11.650;2022-08-24T04:00:54;101283.19;;;15.00;91.36
14612;BME280;7392;52.078;11.650;2022-08-24T04:03:22;101275.16;;;14.99;91.42
14612;BME280;7392;52.078;11.650;2022-08-24T04:05:52;101268.97;;;14.96;91.67
14612;BME280;7392;52.078;11.650;2022-08-24T04:08:21;101266.28;;;14.96;91.79
14612;BME280;7392;52.078;11.650;2022-08-24T04:10:51;101279.69;;;14.95;92.04
14612;BME280;7392;52.078;11.650;2022-08-24T04:13:19;101276.13;;;14.93;92.38
14612;BME280;7392;52.078;11.650;2022-08-24T04:15:47;101276.16;;;14.90;92.05
14612;BME280;7392;52.078;11.650;2022-08-24T04:18:18;101275.31;;;14.88;91.96
14612;BME280;7392;52.078;11.650;2022-08-24T04:20:51;101280.69;;;14.83;91.66
14612;BME280;7392;52.078;11.650;2022-08-24T04:23:19;101265.56;;;14.81;91.52
14612;BME280;7392;52.078;11.650;2022-08-24T04:26:00;101279.88;;;14.78;91.64
14612;BME280;7392;52.078;11.650;2022-08-24T04:28:30;101286.09;;;14.77;91.53
14612;BME280;7392;52.078;11.650;2022-08-24T04:30:59;101286.13;;;14.74;91.66
14612;BME280;7392;52.078;11.650;2022-08-24T04:33:34;101293.25;;;14.75;92.02
14612;BME280;7392;52.078;11.650;2022-08-24T04:36:05;101298.63;;;14.73;92.45
14612;BME280;7392;52.078;11.650;2022-08-24T04:38:36;101301.28;;;14.73;92.59
14612;BME280;7392;52.078;11.650;2022-08-24T04:41:21;101303.94;;;14.75;92.70
14612;BME280;7392;52.078;11.650;2022-08-24T04:43:57;101302.16;;;14.75;92.98
14612;BME280;7392;52.078;11.650;2022-08-24T04:46:26;101311.97;;;14.76;93.46
14612;BME280;7392;52.078;11.650;2022-08-24T04:48:56;101311.94;;;14.78;93.91
14612;BME280;7392;52.078;11.650;2022-08-24T04:51:25;101319.03;;;14.79;94.16
14612;BME280;7392;52.078;11.650;2022-08-24T04:54:02;101316.38;;;14.81;94.72
14612;BME280;7392;52.078;11.650;2022-08-24T04:56:31;101319.94;;;14.83;94.92
14612;BME280;7392;52.078;11.650;2022-08-24T04:59:00;101325.28;;;14.83;94.77
14612;BME280;7392;52.078;11.650;2022-08-24T05:01:31;101332.38;;;14.84;94.75
14612;BME280;7392;52.078;11.650;2022-08-24T05:04:02;101330.59;;;14.84;94.54
14612;BME280;7392;52.078;11.650;2022-08-24T05:06:31;101327.91;;;14.86;94.96
14612;BME280;7392;52.078;11.650;2022-08-24T05:09:00;101327.00;;;14.87;95.21
14612;BME280;7392;52.078;11.650;2022-08-24T05:11:29;101330.53;;;14.89;95.06
14612;BME280;7392;52.078;11.650;2022-08-24T05:13:59;101328.75;;;14.89;95.07
14612;BME280;7392;52.078;11.650;2022-08-24T05:16:28;101335.00;;;14.91;95.15
14612;BME280;7392;52.078;11.650;2022-08-24T05:18:58;101342.06;;;14.94;94.94
14612;BME280;7392;52.078;11.650;2022-08-24T05:21:26;101334.91;;;14.96;95.36
14612;BME280;7392;52.078;11.650;2022-08-24T05:23:57;101334.00;;;14.99;95.62
14612;BME280;7392;52.078;11.650;2022-08-24T05:26:30;101338.41;;;15.04;95.89
14612;BME280;7392;52.078;11.650;2022-08-24T05:29:01;101326.78;;;15.08;96.18
14612;BME280;7392;52.078;11.650;2022-08-24T05:31:41;101334.72;;;15.13;96.55
14612;BME280;7392;52.078;11.650;2022-08-24T05:34:11;101339.16;;;15.17;96.56
14612;BME280;7392;52.078;11.650;2022-08-24T05:36:39;101329.28;;;15.22;96.72
14612;BME280;7392;52.078;11.650;2022-08-24T05:39:16;101329.19;;;15.27;97.00
14612;BME280;7392;52.078;11.650;2022-08-24T05:41:51;101338.97;;;15.32;97.27
14612;BME280;7392;52.078;11.650;2022-08-24T05:44:26;101335.31;;;15.40;98.45
14612;BME280;7392;52.078;11.650;2022-08-24T05:46:59;101335.22;;;15.46;99.06
14612;BME280;7392;52.078;11.650;2022-08-24T05:49:29;101337.81;;;15.52;99.34
14612;BME280;7392;52.078;11.650;2022-08-24T05:51:57;101340.41;;;15.58;99.35
14612;BME280;7392;52.078;11.650;2022-08-24T05:54:26;101334.97;;;15.64;100.00
14612;BME280;7392;52.078;11.650;2022-08-24T05:56:57;101333.06;;;15.73;100.00
14612;BME280;7392;52.078;11.650;2022-08-24T05:59:41;101341.91;;;15.81;100.00
14612;BME280;7392;52.078;11.650;2022-08-24T06:02:13;101337.31;;;15.91;100.00
14612;BME280;7392;52.078;11.650;2022-08-24T06:04:41;101345.19;;;16.00;100.00
14612;BME280;7392;52.078;11.650;2022-08-24T06:07:11;101331.69;;;16.09;100.00
14612;BME280;7392;52.078;11.650;2022-08-24T06:09:43;101343.13;;;16.17;100.00
14612;BME280;7392;52.078;11.650;2022-08-24T06:12:11;101341.19;;;16.29;100.00
14612;BME280;7392;52.078;11.650;2022-08-24T06:14:45;101345.44;;;16.40;100.00
14612;BME280;7392;52.078;11.650;2022-08-24T06:17:19;101348.84;;;16.52;100.00
14612;BME280;7392;52.078;11.650;2022-08-24T06:19:49;101341.50;;;16.61;100.00
14612;BME280;7392;52.078;11.650;2022-08-24T06:22:17;101343.09;;;16.72;100.00
14612;BME280;7392;52.078;11.650;2022-08-24T06:24:45;101346.50;;;16.83;100.00
14612;BME280;7392;52.078;11.650;2022-08-24T06:27:30;101347.16;;;16.96;100.00
14612;BME280;7392;52.078;11.650;2022-08-24T06:30:04;101351.44;;;17.05;100.00
14612;BME280;7392;52.078;11.650;2022-08-24T06:32:57;101351.25;;;17.15;100.00
14612;BME280;7392;52.078;11.650;2022-08-24T06:35:41;101349.28;;;17.25;100.00
14612;BME280;7392;52.078;11.650;2022-08-24T06:38:13;101356.28;;;17.32;100.00
14612;BME280;7392;52.078;11.650;2022-08-24T06:40:43;101357.94;;;17.39;100.00
14612;BME280;7392;52.078;11.650;2022-08-24T06:43:12;101363.13;;;17.47;100.00
14612;BME280;7392;52.078;11.650;2022-08-24T06:45:54;101360.28;;;17.55;100.00
14612;BME280;7392;52.078;11.650;2022-08-24T06:48:28;101358.34;;;17.62;100.00
14612;BME280;7392;52.078;11.650;2022-08-24T06:50:57;101370.63;;;17.73;100.00
14612;BME280;7392;52.078;11.650;2022-08-24T06:53:26;101365.97;;;17.82;100.00
14612;BME280;7392;52.078;11.650;2022-08-24T06:55:57;101364.94;;;17.89;100.00
14612;BME280;7392;52.078;11.650;2022-08-24T06:58:28;101373.75;;;17.96;100.00
14612;BME280;7392;52.078;11.650;2022-08-24T07:01:08;101378.00;;;18.06;100.00
14612;BME280;7392;52.078;11.650;2022-08-24T07:03:37;101377.81;;;18.13;100.00
14612;BME280;7392;52.078;11.650;2022-08-24T07:06:29;101376.66;;;18.24;100.00
14612;BME280;7392;52.078;11.650;2022-08-24T07:08:59;101375.59;;;18.31;100.00
14612;BME280;7392;52.078;11.650;2022-08-24T07:11:29;101373.63;;;18.38;100.00
14612;BME280;7392;52.078;11.650;2022-08-24T07:13:59;101367.25;;;18.43;100.00
14612;BME280;7392;52.078;11.650;2022-08-24T07:16:28;101376.88;;;18.52;100.00
14612;BME280;7392;52.078;11.650;2022-08-24T07:19:00;101369.47;;;18.62;100.00
14612;BME280;7392;52.078;11.650;2022-08-24T07:21:29;101364.75;;;18.70;99.80
14612;BME280;7392;52.078;11.650;2022-08-24T07:23:59;101375.31;;;18.78;99.53
14612;BME280;7392;52.078;11.650;2022-08-24T07:26:33;101371.44;;;18.90;99.41
14612;BME280;7392;52.078;11.650;2022-08-24T07:29:04;101364.00;;;18.99;98.84
14612;BME280;7392;52.078;11.650;2022-08-24T07:31:48;101373.59;;;19.10;97.59
14612;BME280;7392;52.078;11.650;2022-08-24T07:34:32;101376.94;;;19.18;96.71
14612;BME280;7392;52.078;11.650;2022-08-24T07:37:00;101369.50;;;19.28;96.66
14612;BME280;7392;52.078;11.650;2022-08-24T07:39:29;101382.63;;;19.38;95.70
14612;BME280;7392;52.078;11.650;2022-08-24T07:41:57;101379.69;;;19.48;95.51
14612;BME280;7392;52.078;11.650;2022-08-24T07:44:47;101378.50;;;19.58;94.96
14612;BME280;7392;52.078;11.650;2022-08-24T07:47:16;101372.72;;;19.70;94.27
14612;BME280;7392;52.078;11.650;2022-08-24T07:50:14;101372.28;;;19.86;94.09
14612;BME280;7392;52.078;11.650;2022-08-24T07:52:43;101370.97;;;19.99;94.05
14612;BME280;7392;52.078;11.650;2022-08-24T07:55:13;101372.41;;;20.11;93.60
14612;BME280;7392;52.078;11.650;2022-08-24T07:57:42;101382.75;;;20.25;93.18
14612;BME280;7392;52.078;11.650;2022-08-24T08:00:14;101386.84;;;20.36;92.68
14612;BME280;7392;52.078;11.650;2022-08-24T08:02:51;101387.28;;;20.51;92.43
14612;BME280;7392;52.078;11.650;2022-08-24T08:05:21;101390.38;;;20.67;91.97
14612;BME280;7392;52.078;11.650;2022-08-24T08:07:52;101389.00;;;20.80;90.73
14612;BME280;7392;52.078;11.650;2022-08-24T08:10:20;101394.81;;;20.95;89.88
14612;BME280;7392;52.078;11.650;2022-08-24T08:12:51;101391.63;;;21.08;88.80
14612;BME280;7392;52.078;11.650;2022-08-24T08:15:19;101390.28;;;21.20;87.56
14612;BME280;7392;52.078;11.650;2022-08-24T08:18:01;101395.13;;;21.36;86.70
14612;BME280;7392;52.078;11.650;2022-08-24T08:20:30;101393.72;;;21.51;86.33
14612;BME280;7392;52.078;11.650;2022-08-24T08:22:59;101396.72;;;21.66;85.19
14612;BME280;7392;52.078;11.650;2022-08-24T08:25:47;101390.72;;;21.82;83.86
14612;BME280;7392;52.078;11.650;2022-08-24T08:28:22;101388.22;;;21.99;83.05
14612;BME280;7392;52.078;11.650;2022-08-24T08:30:59;101387.53;;;22.16;82.67
14612;BME280;7392;52.078;11.650;2022-08-24T08:33:30;101395.94;;;22.32;82.11
14612;BME280;7392;52.078;11.650;2022-08-24T08:36:03;101393.56;;;22.47;81.09
14612;BME280;7392;52.078;11.650;2022-08-24T08:38:34;101398.31;;;22.62;80.01
14612;BME280;7392;52.078;11.650;2022-08-24T08:41:36;101394.09;;;22.77;78.25
14612;BME280;7392;52.078;11.650;2022-08-24T08:44:18;101389.06;;;22.88;77.13
14612;BME280;7392;52.078;11.650;2022-08-24T08:47:01;101392.88;;;23.05;76.62
14612;BME280;7392;52.078;11.650;2022-08-24T08:50:02;101395.00;;;23.19;75.53
14612;BME280;7392;52.078;11.650;2022-08-24T08:53:04;101391.44;;;23.37;75.26
14612;BME280;7392;52.078;11.650;2022-08-24T08:55:40;101390.59;;;23.56;74.49
14612;BME280;7392;52.078;11.650;2022-08-24T08:58:36;101391.75;;;23.69;72.67
14612;BME280;7392;52.078;11.650;2022-08-24T09:01:30;101387.56;;;23.82;71.18
14612;BME280;7392;52.078;11.650;2022-08-24T09:04:46;101387.88;;;23.95;70.19
14612;BME280;7392;52.078;11.650;2022-08-24T09:07:29;101390.41;;;24.17;71.01
14612;BME280;7392;52.078;11.650;2022-08-24T09:10:16;101400.84;;;24.44;71.62
14612;BME280;7392;52.078;11.650;2022-08-24T09:13:00;101400.81;;;24.63;70.46
14612;BME280;7392;52.078;11.650;2022-08-24T09:15:53;101398.28;;;24.77;68.34
14612;BME280;7392;52.078;11.650;2022-08-24T09:18:44;101393.00;;;24.92;67.00
14612;BME280;7392;52.078;11.650;2022-08-24T09:21:37;101385.72;;;25.10;66.48
14612;BME280;7392;52.078;11.650;2022-08-24T09:24:23;101386.59;;;25.28;65.14
14612;BME280;7392;52.078;11.650;2022-08-24T09:27:12;101382.97;;;25.45;64.37
14612;BME280;7392;52.078;11.650;2022-08-24T09:29:57;101386.38;;;25.66;64.81
14612;BME280;7392;52.078;11.650;2022-08-24T09:32:35;101379.09;;;25.82;63.34
14612;BME280;7392;52.078;11.650;2022-08-24T09:35:10;101381.94;;;25.97;62.41
14612;BME280;7392;52.078;11.650;2022-08-24T09:37:59;101382.72;;;26.15;61.30
14612;BME280;7392;52.078;11.650;2022-08-24T09:40:42;101373.06;;;26.25;61.05
14612;BME280;7392;52.078;11.650;2022-08-24T09:43:40;101373.06;;;26.41;60.52
14612;BME280;7392;52.078;11.650;2022-08-24T09:55:51;101363.13;;;27.00;58.14
14612;BME280;7392;52.078;11.650;2022-08-24T09:58:36;101363.53;;;27.09;57.48
14612;BME280;7392;52.078;11.650;2022-08-24T10:01:14;101360.84;;;27.23;56.96
14612;BME280;7392;52.078;11.650;2022-08-24T10:04:07;101367.09;;;27.39;57.16
14612;BME280;7392;52.078;11.650;2022-08-24T10:06:48;101355.59;;;27.49;55.23
14612;BME280;7392;52.078;11.650;2022-08-24T10:09:49;101357.63;;;27.59;54.11
14612;BME280;7392;52.078;11.650;2022-08-24T10:15:21;101361.03;;;27.77;54.04
14612;BME280;7392;52.078;11.650;2022-08-24T10:18:05;101355.38;;;27.95;53.61
14612;BME280;7392;52.078;11.650;2022-08-24T10:20:49;101343.63;;;28.07;52.91
14612;BME280;7392;52.078;11.650;2022-08-24T10:26:21;101341.47;;;28.40;51.76
14612;BME280;7392;52.078;11.650;2022-08-24T10:29:04;101335.06;;;28.53;50.09
14612;BME280;7392;52.078;11.650;2022-08-24T10:31:42;101335.00;;;28.68;49.49
14612;BME280;7392;52.078;11.650;2022-08-24T10:34:32;101344.53;;;28.88;49.35
14612;BME280;7392;52.078;11.650;2022-08-24T10:37:21;101330.00;;;29.00;48.22
14612;BME280;7392;52.078;11.650;2022-08-24T10:40:08;101330.88;;;29.14;47.43
14612;BME280;7392;52.078;11.650;2022-08-24T10:55:21;101320.16;;;29.99;45.83
14612;BME280;7392;52.078;11.650;2022-08-24T10:58:05;101322.88;;;30.23;45.01
14612;BME280;7392;52.078;11.650;2022-08-24T11:00:36;101319.25;;;30.35;43.69
14612;BME280;7392;52.078;11.650;2022-08-24T11:03:13;101324.75;;;30.47;43.50
14612;BME280;7392;52.078;11.650;2022-08-24T11:05:44;101320.56;;;30.54;43.31
14612;BME280;7392;52.078;11.650;2022-08-24T11:08:19;101318.59;;;30.67;44.11
14612;BME280;7392;52.078;11.650;2022-08-24T11:11:05;101319.38;;;30.81;41.88
14612;BME280;7392;52.078;11.650;2022-08-24T11:13:34;101315.78;;;30.80;40.90
14612;BME280;7392;52.078;11.650;2022-08-24T11:16:04;101311.84;;;30.95;40.80
14612;BME280;7392;52.078;11.650;2022-08-24T11:18:48;101315.09;;;31.12;41.78
14612;BME280;7392;52.078;11.650;2022-08-24T11:21:32;101313.34;;;31.22;41.79
14612;BME280;7392;52.078;11.650;2022-08-24T11:24:04;101310.38;;;31.37;41.60
14612;BME280;7392;52.078;11.650;2022-08-24T11:26:46;101314.91;;;31.60;41.25
14612;BME280;7392;52.078;11.650;2022-08-24T11:29:21;101307.25;;;31.75;40.09
14612;BME280;7392;52.078;11.650;2022-08-24T11:31:50;101309.09;;;31.86;39.23
14612;BME280;7392;52.078;11.650;2022-08-24T11:34:30;101313.44;;;31.88;38.26
14612;BME280;7392;52.078;11.650;2022-08-24T11:36:59;101318.19;;;31.98;37.92
14612;BME280;7392;52.078;11.650;2022-08-24T11:39:31;101307.09;;;31.88;36.59
14612;BME280;7392;52.078;11.650;2022-08-24T11:42:05;101308.19;;;31.97;37.54
14612;BME280;7392;52.078;11.650;2022-08-24T11:44:44;101315.53;;;32.19;37.46
14612;BME280;7392;52.078;11.650;2022-08-24T11:47:37;101315.69;;;32.38;36.93
14612;BME280;7392;52.078;11.650;2022-08-24T11:50:21;101312.19;;;32.57;36.66
14612;BME280;7392;52.078;11.650;2022-08-24T11:52:58;101316.72;;;32.79;36.43
14612;BME280;7392;52.078;11.650;2022-08-24T11:55:32;101314.97;;;32.99;35.76
14612;BME280;7392;52.078;11.650;2022-08-24T11:58:22;101317.72;;;33.21;35.20
14612;BME280;7392;52.078;11.650;2022-08-24T12:01:01;101322.94;;;33.24;33.33
14612;BME280;7392;52.078;11.650;2022-08-24T12:03:42;101318.09;;;33.37;33.57
14612;BME280;7392;52.078;11.650;2022-08-24T12:06:29;101313.84;;;33.64;34.10
14612;BME280;7392;52.078;11.650;2022-08-24T12:09:05;101311.47;;;33.90;33.93
14612;BME280;7392;52.078;11.650;2022-08-24T12:11:42;101305.56;;;34.14;32.57
14612;BME280;7392;52.078;11.650;2022-08-24T12:14:17;101303.13;;;34.31;32.46
14612;BME280;7392;52.078;11.650;2022-08-24T12:16:51;101302.53;;;34.56;32.58
14612;BME280;7392;52.078;11.650;2022-08-24T12:19:25;101306.13;;;34.86;32.26
14612;BME280;7392;52.078;11.650;2022-08-24T12:22:03;101305.31;;;35.13;31.95
14612;BME280;7392;52.078;11.650;2022-08-24T12:24:36;101300.91;;;35.40;31.06
14612;BME280;7392;52.078;11.650;2022-08-24T12:27:08;101297.88;;;35.61;30.04
14612;BME280;7392;52.078;11.650;2022-08-24T12:29:41;101307.41;;;35.76;29.26
14612;BME280;7392;52.078;11.650;2022-08-24T12:32:13;101304.69;;;35.94;28.94
14612;BME280;7392;52.078;11.650;2022-08-24T12:34:51;101297.09;;;36.14;28.74
14612;BME280;7392;52.078;11.650;2022-08-24T12:37:29;101296.88;;;36.26;28.10
14612;BME280;7392;52.078;11.650;2022-08-24T12:40:05;101296.25;;;36.32;26.99
14612;BME280;7392;52.078;11.650;2022-08-24T12:42:42;101299.50;;;36.45;26.85
14612;BME280;7392;52.078;11.650;2022-08-24T12:45:19;101297.53;;;36.64;26.76
14612;BME280;7392;52.078;11.650;2022-08-24T12:47:51;101301.50;;;36.79;26.44
14612;BME280;7392;52.078;11.650;2022-08-24T12:50:26;101298.78;;;36.87;25.70
14612;BME280;7392;52.078;11.650;2022-08-24T12:53:10;101298.75;;;37.05;26.14
14612;BME280;7392;52.078;11.650;2022-08-24T12:56:00;101298.94;;;37.38;26.77
14612;BME280;7392;52.078;11.650;2022-08-24T12:58:48;101286.44;;;37.69;26.40
14612;BME280;7392;52.078;11.650;2022-08-24T13:01:22;101285.97;;;37.90;25.42
14612;BME280;7392;52.078;11.650;2022-08-24T13:04:05;101289.13;;;38.11;24.93
14612;BME280;7392;52.078;11.650;2022-08-24T13:06:41;101291.06;;;38.19;24.40
14612;BME280;7392;52.078;11.650;2022-08-24T13:09:16;101295.00;;;38.08;24.00
14612;BME280;7392;52.078;11.650;2022-08-24T13:11:54;101286.41;;;38.20;23.84
14612;BME280;7392;52.078;11.650;2022-08-24T13:14:26;101290.22;;;38.27;23.94
14612;BME280;7392;52.078;11.650;2022-08-24T13:17:11;101289.69;;;38.40;23.97
14612;BME280;7392;52.078;11.650;2022-08-24T13:19:42;101293.50;;;38.30;22.30
14612;BME280;7392;52.078;11.650;2022-08-24T13:22:37;101284.63;;;38.10;22.79
14612;BME280;7392;52.078;11.650;2022-08-24T13:25:51;101285.00;;;38.15;22.93
14612;BME280;7392;52.078;11.650;2022-08-24T13:28:41;101283.09;;;38.32;23.67
14612;BME280;7392;52.078;11.650;2022-08-24T13:31:29;101273.03;;;38.40;23.18
14612;BME280;7392;52.078;11.650;2022-08-24T13:34:35;101272.34;;;38.29;23.58
14612;BME280;7392;52.078;11.650;2022-08-24T13:37:11;101277.72;;;38.47;24.59
14612;BME280;7392;52.078;11.650;2022-08-24T13:40:05;101268.22;;;38.66;24.49
14612;BME280;7392;52.078;11.650;2022-08-24T13:43:00;101273.88;;;38.89;24.64
14612;BME280;7392;52.078;11.650;2022-08-24T13:45:33;101273.50;;;39.01;24.56
14612;BME280;7392;52.078;11.650;2022-08-24T13:48:21;101266.69;;;39.20;24.93
14612;BME280;7392;52.078;11.650;2022-08-24T13:51:27;101275.19;;;39.26;24.38
14612;BME280;7392;52.078;11.650;2022-08-24T13:54:06;101266.16;;;39.24;24.08
14612;BME280;7392;52.078;11.650;2022-08-24T13:57:21;101260.19;;;39.36;24.25